Terminal Aerodrome Forecast
Issued by NWS Blacksburg, VA

Home | Current Version | Previous Version | Text Only | Print | Product List | Glossary On
Versions: 1 2 3 4 5 6 7 8 9 10 11 12 13 14 15 16 17 18 19 20 21 22 23 24 25 26 27 28 29 30 31 32 33 34 35 36 37 38
000
FTUS41 KRNK 201129
TAFLYH
TAF
KLYH 201129Z 2012/2112 VRB03KT P6SM OVC060
     FM201300 VRB03KT P6SM SCT015
     FM201700 14005KT P6SM SCT035
     FM210000 00000KT P6SM SKC
     FM210700 00000KT 5SM BR SKC=

USA.gov is the U.S. government's official web portal to all federal, state and local government web resources and services.